Time;durP1;ratioP1;P1;durP2;ratioP2;P2;SDS_P1;SDS_P2;PMS_P1;PMS_P2;Temp;Humidity;BMP_temperature;BMP_pressure;BME280_temperature;BME280_humidity;BME280_pressure;Samples;Min_cycle;Max_cycle;Signal;HPM_P1;HPM_P2
2023/05/21 00:00:10;;;;;;;168.27;61.20;;;;;;;17.22;44.57;101957.03;5048684;28;20032;-71
2023/05/21 00:02:35;;;;;;;172.07;62.42;;;;;;;17.23;45.05;101969.31;5031369;28;20029;-71
2023/05/21 00:05:00;;;;;;;165.35;60.58;;;;;;;17.22;44.49;101957.88;5035599;28;20081;-71
2023/05/21 00:07:26;;;;;;;165.27;60.58;;;;;;;17.21;44.87;101955.28;5041670;28;20025;-71
2023/05/21 00:09:51;;;;;;;169.63;60.65;;;;;;;17.21;44.55;101950.84;5048913;28;20025;-71
2023/05/21 00:12:17;;;;;;;167.77;61.70;;;;;;;17.21;44.88;101942.09;5026988;28;20088;-71
2023/05/21 00:14:42;;;;;;;167.75;63.08;;;;;;;17.20;45.18;101940.34;5044575;28;20033;-72
2023/05/21 00:17:07;;;;;;;171.30;61.13;;;;;;;17.19;45.14;101935.97;5050169;28;20036;-71
2023/05/21 00:19:33;;;;;;;172.93;62.20;;;;;;;17.19;44.72;101935.97;5042486;28;20036;-71
2023/05/21 00:22:01;;;;;;;171.98;60.95;;;;;;;17.18;45.05;101935.09;5047829;28;20036;-70
2023/05/21 00:24:27;;;;;;;176.02;62.95;;;;;;;17.17;45.05;101937.78;5030016;28;20401;-70
2023/05/21 00:26:52;;;;;;;166.75;60.45;;;;;;;17.17;45.05;101935.16;5024843;28;20419;-71
2023/05/21 00:29:17;;;;;;;178.07;62.92;;;;;;;17.16;45.09;101922.84;5049957;28;20040;-71
2023/05/21 00:31:43;;;;;;;168.75;60.80;;;;;;;17.16;45.42;101931.63;5048691;28;20021;-71
2023/05/21 00:34:08;;;;;;;182.38;63.40;;;;;;;17.15;45.05;101929.03;5048244;28;20029;-71
2023/05/21 00:36:33;;;;;;;166.50;58.55;;;;;;;17.15;45.16;101929.03;5049144;28;20032;-71
2023/05/21 00:38:59;;;;;;;159.85;60.17;;;;;;;17.13;45.22;101921.13;5045402;28;20041;-71
2023/05/21 00:41:24;;;;;;;170.65;62.80;;;;;;;17.14;45.06;101927.28;5046503;28;20513;-71
2023/05/21 00:43:51;;;;;;;175.15;61.83;;;;;;;17.13;45.18;101920.28;5051871;28;20025;-71
2023/05/21 00:46:18;;;;;;;162.23;61.92;;;;;;;17.13;45.09;101921.13;5045388;28;20491;-70
2023/05/21 00:48:45;;;;;;;167.43;60.55;;;;;;;17.13;45.16;101925.56;5052820;28;20028;-71
2023/05/21 00:51:11;;;;;;;166.30;60.90;;;;;;;17.12;44.89;101926.47;5043596;28;20017;-71
2023/05/21 00:53:36;;;;;;;182.77;63.03;;;;;;;17.12;44.89;101923.81;5040590;28;20025;-71
2023/05/21 00:56:02;;;;;;;166.68;60.08;;;;;;;17.11;44.95;101920.31;5033645;28;20100;-71
2023/05/21 00:58:28;;;;;;;162.95;60.95;;;;;;;17.10;45.02;101920.34;5028428;28;20116;-71
2023/05/21 01:00:57;;;;;;;165.07;59.60;;;;;;;17.11;45.10;101919.44;5041535;28;20057;-71
2023/05/21 01:03:22;;;;;;;165.80;59.78;;;;;;;17.10;45.18;101920.34;5034882;28;20410;-71
2023/05/21 01:05:52;;;;;;;176.07;60.95;;;;;;;17.10;45.06;101920.34;5051579;28;20027;-71
2023/05/21 01:08:20;;;;;;;163.60;59.05;;;;;;;17.10;45.11;101909.78;5035644;28;20374;-71
2023/05/21 01:10:48;;;;;;;164.15;59.03;;;;;;;17.09;44.91;101913.34;5044140;28;20132;-71
2023/05/21 01:13:15;;;;;;;164.73;59.25;;;;;;;17.08;44.94;101917.72;5050710;28;20525;-71
2023/05/21 01:15:42;;;;;;;167.77;60.17;;;;;;;17.08;45.06;101908.97;5053170;28;20025;-71
2023/05/21 01:18:08;;;;;;;164.60;59.70;;;;;;;17.06;45.00;101907.22;5031356;28;20038;-71
2023/05/21 01:20:33;;;;;;;164.27;59.30;;;;;;;17.08;45.34;101906.31;5034094;28;20021;-71
2023/05/21 01:22:59;;;;;;;166.07;60.60;;;;;;;17.08;45.49;101906.31;5045787;28;20075;-71
2023/05/21 01:25:25;;;;;;;164.38;61.75;;;;;;;17.06;45.51;101904.56;5082371;22;20048;-71
2023/05/21 01:27:50;;;;;;;170.13;62.08;;;;;;;17.05;44.77;101916.03;5071986;28;20128;-72
2023/05/21 01:30:17;;;;;;;170.85;62.30;;;;;;;17.05;44.98;101901.97;5064968;28;20031;-72
2023/05/21 01:32:45;;;;;;;167.77;62.53;;;;;;;17.05;44.93;101904.63;5080961;28;20426;-72
2023/05/21 01:35:14;;;;;;;168.43;61.53;;;;;;;17.03;44.94;101899.38;5060430;28;20086;-72
2023/05/21 01:37:45;;;;;;;167.07;61.85;;;;;;;17.04;45.05;101906.41;5052155;28;20039;-72
2023/05/21 01:40:26;;;;;;;168.15;61.88;;;;;;;17.04;45.09;101901.13;5050509;28;20390;-71
2023/05/21 01:42:52;;;;;;;169.70;61.65;;;;;;;17.03;45.15;101896.75;5050197;28;20056;-70
2023/05/21 01:45:17;;;;;;;167.18;61.03;;;;;;;17.03;45.40;101896.75;5051683;28;20075;-71
2023/05/21 01:47:46;;;;;;;168.15;61.92;;;;;;;17.03;44.79;101887.97;5050276;28;20024;-71
2023/05/21 01:50:12;;;;;;;171.70;62.05;;;;;;;17.03;45.45;101894.09;5050040;28;20018;-70
2023/05/21 01:52:38;;;;;;;172.77;62.25;;;;;;;17.02;45.37;101887.09;5061199;28;20021;-71
2023/05/21 01:55:03;;;;;;;163.52;60.63;;;;;;;17.01;45.59;101885.34;5042578;28;20537;-71
2023/05/21 01:57:29;;;;;;;167.90;60.70;;;;;;;17.01;45.06;101885.34;5056690;28;20029;-70
2023/05/21 01:59:55;;;;;;;168.20;62.00;;;;;;;17.00;44.87;101888.91;5031213;28;20119;-70
2023/05/21 02:02:20;;;;;;;168.38;61.40;;;;;;;17.00;45.08;101886.28;5057389;28;20036;-70
2023/05/21 02:04:46;;;;;;;161.27;60.65;;;;;;;17.00;45.17;101878.34;5049686;28;20024;-70
2023/05/21 02:07:13;;;;;;;165.93;61.30;;;;;;;17.01;45.40;101884.47;5033835;28;20028;-70
2023/05/21 02:09:39;;;;;;;190.32;64.45;;;;;;;16.99;45.29;101881.88;5052773;28;20115;-70
2023/05/21 02:12:05;;;;;;;170.52;61.47;;;;;;;17.00;45.31;101878.34;5031457;28;20116;-70
2023/05/21 02:14:32;;;;;;;166.23;61.50;;;;;;;17.00;45.50;101888.03;5066206;28;20123;-71
2023/05/21 02:16:58;;;;;;;170.63;61.92;;;;;;;16.98;45.45;101882.78;5031035;28;20033;-70
2023/05/21 02:19:23;;;;;;;161.90;61.05;;;;;;;16.98;45.48;101879.28;5070026;28;20025;-70
2023/05/21 02:21:49;;;;;;;168.13;63.40;;;;;;;16.97;45.23;101878.41;5041343;28;20552;-71
2023/05/21 02:24:14;;;;;;;187.00;63.78;;;;;;;16.97;45.45;101870.47;5033771;28;20474;-70
2023/05/21 02:26:39;;;;;;;169.23;61.65;;;;;;;16.97;45.52;101867.00;5070943;28;20119;-70
2023/05/21 02:29:05;;;;;;;170.80;62.08;;;;;;;16.97;45.11;101861.72;5070165;28;20107;-70
2023/05/21 02:31:31;;;;;;;165.95;60.70;;;;;;;16.97;45.40;101867.00;5034920;28;20029;-71
2023/05/21 02:33:56;;;;;;;167.88;62.55;;;;;;;16.97;45.20;101856.44;5049718;28;20431;-70
2023/05/21 02:36:24;;;;;;;159.43;60.95;;;;;;;16.96;45.43;101863.50;5063451;28;20118;-70
2023/05/21 02:38:49;;;;;;;160.38;60.47;;;;;;;16.96;45.40;101860.84;5050715;28;20462;-70
2023/05/21 02:41:14;;;;;;;168.18;61.05;;;;;;;16.95;45.35;101859.13;5041152;28;20090;-71
2023/05/21 02:43:40;;;;;;;168.65;61.35;;;;;;;16.95;45.62;101853.84;5048318;28;20359;-70
2023/05/21 02:46:06;;;;;;;167.73;61.03;;;;;;;16.95;45.54;101848.56;5048862;28;20040;-71
2023/05/21 02:48:31;;;;;;;173.90;62.20;;;;;;;16.95;45.37;101838.00;5069686;28;20036;-70
2023/05/21 02:50:57;;;;;;;163.90;60.45;;;;;;;16.95;45.42;101842.41;5051064;28;20028;-70
2023/05/21 02:53:22;;;;;;;168.52;62.22;;;;;;;16.95;45.31;101845.91;5044632;28;20036;-70
2023/05/21 02:55:48;;;;;;;176.95;63.00;;;;;;;16.94;45.16;101844.19;5050762;28;20016;-70
2023/05/21 02:58:13;;;;;;;167.57;61.13;;;;;;;16.94;45.68;101846.81;5049004;28;20120;-71
2023/05/21 03:00:39;;;;;;;169.32;61.13;;;;;;;16.94;45.32;101845.97;5043786;28;20475;-71
2023/05/21 03:03:04;;;;;;;169.32;61.78;;;;;;;16.93;45.47;101839.78;5043398;28;20366;-71
2023/05/21 03:05:30;;;;;;;167.63;60.60;;;;;;;16.93;45.79;101837.16;5041960;28;20119;-71
2023/05/21 03:07:55;;;;;;;179.18;62.30;;;;;;;16.93;45.77;101839.78;5068214;28;20048;-70
2023/05/21 03:10:20;;;;;;;170.35;61.38;;;;;;;16.93;45.91;101836.31;5045824;28;20025;-70
2023/05/21 03:12:46;;;;;;;169.52;61.50;;;;;;;16.93;46.02;101839.78;5050632;28;20459;-70
2023/05/21 03:15:13;;;;;;;170.68;60.78;;;;;;;16.93;45.34;101841.56;5046626;28;20108;-70
2023/05/21 03:17:40;;;;;;;164.63;60.10;;;;;;;16.92;45.69;101837.19;5059513;28;20040;-70
2023/05/21 03:20:07;;;;;;;160.70;60.05;;;;;;;16.93;45.48;101838.94;5062393;28;20029;-71
2023/05/21 03:22:33;;;;;;;179.73;62.92;;;;;;;16.93;45.56;101846.84;5038564;28;20381;-71
2023/05/21 03:24:59;;;;;;;173.25;62.33;;;;;;;16.94;45.48;101838.03;5040909;28;20035;-70
2023/05/21 03:27:24;;;;;;;166.68;61.08;;;;;;;16.94;45.55;101843.31;5068888;28;20017;-70
2023/05/21 03:29:50;;;;;;;168.95;60.55;;;;;;;16.94;45.71;101852.09;5054158;28;20043;-70
2023/05/21 03:32:16;;;;;;;169.50;61.22;;;;;;;16.94;45.75;101849.44;5047352;28;20028;-71
2023/05/21 03:34:41;;;;;;;164.38;60.42;;;;;;;16.94;45.60;101836.25;5044107;28;20020;-70
2023/05/21 03:37:06;;;;;;;164.27;60.58;;;;;;;16.94;45.62;101830.97;5049647;28;20367;-70
2023/05/21 03:39:32;;;;;;;164.95;60.30;;;;;;;16.96;45.57;101834.47;5033148;28;20076;-70
2023/05/21 03:41:57;;;;;;;182.32;62.75;;;;;;;16.95;45.63;101830.09;5053039;28;20041;-71
2023/05/21 03:44:22;;;;;;;180.48;62.20;;;;;;;16.97;45.85;101830.03;5041533;28;20443;-70
2023/05/21 03:46:48;;;;;;;165.13;59.53;;;;;;;16.97;45.51;101830.91;5041543;28;20080;-71
2023/05/21 03:49:13;;;;;;;168.98;60.80;;;;;;;16.98;45.34;101831.78;5049127;28;20090;-70
2023/05/21 03:51:38;;;;;;;162.70;60.22;;;;;;;16.98;45.86;101824.72;5067497;28;20166;-70
2023/05/21 03:54:04;;;;;;;172.65;61.50;;;;;;;17.00;45.07;101820.28;5041163;28;20426;-71
2023/05/21 03:56:29;;;;;;;162.23;60.17;;;;;;;17.01;45.69;101827.28;5041222;28;20545;-71
2023/05/21 03:58:55;;;;;;;166.35;60.08;;;;;;;17.02;45.64;101817.59;5065221;28;20025;-71
2023/05/21 04:01:20;;;;;;;176.15;62.72;;;;;;;17.03;45.46;101812.28;5062448;28;20136;-70
2023/05/21 04:03:46;;;;;;;168.05;60.97;;;;;;;17.05;45.62;101813.09;5043712;28;20112;-70
2023/05/21 04:06:11;;;;;;;168.77;60.65;;;;;;;17.06;45.27;101814.84;5048475;28;20017;-70
2023/05/21 04:08:37;;;;;;;167.60;60.08;;;;;;;17.06;45.53;101825.38;5050008;28;20029;-71
2023/05/21 04:11:02;;;;;;;169.00;60.90;;;;;;;17.08;45.10;101814.78;5048374;28;20408;-70
2023/05/21 04:13:27;;;;;;;179.07;62.55;;;;;;;17.10;45.44;101809.47;5046285;28;20021;-70
2023/05/21 04:15:53;;;;;;;167.95;61.85;;;;;;;17.12;45.57;101813.81;5036327;28;20121;-70
2023/05/21 04:18:19;;;;;;;168.60;61.65;;;;;;;17.13;45.21;101820.81;5048500;28;20122;-71
2023/05/21 04:20:45;;;;;;;167.23;61.35;;;;;;;17.14;45.13;101813.75;5034883;28;20041;-71
2023/05/21 04:23:10;;;;;;;169.60;61.17;;;;;;;17.15;45.22;101820.78;5050285;28;20559;-70
2023/05/21 04:25:37;;;;;;;172.20;62.78;;;;;;;17.14;45.49;101816.41;5046378;28;20611;-70
2023/05/21 04:28:03;;;;;;;166.63;61.55;;;;;;;17.16;45.07;101819.88;5052442;28;20025;-71
2023/05/21 04:30:28;;;;;;;165.13;60.70;;;;;;;17.17;45.50;101816.34;5034714;28;20009;-70
2023/05/21 04:32:54;;;;;;;167.88;60.65;;;;;;;17.17;45.22;101811.06;5062176;28;20038;-70
2023/05/21 04:35:19;;;;;;;166.45;61.22;;;;;;;17.17;45.47;101811.91;5066515;28;20055;-70
2023/05/21 04:37:45;;;;;;;163.85;60.78;;;;;;;17.19;45.13;101809.22;5034692;28;20481;-71
2023/05/21 04:40:17;;;;;;;165.00;60.70;;;;;;;17.19;45.20;101815.41;5048092;28;20029;-71
2023/05/21 04:42:44;;;;;;;157.27;59.03;;;;;;;17.22;45.36;101811.81;5039415;28;20053;-70
2023/05/21 04:45:10;;;;;;;164.43;61.72;;;;;;;17.24;45.22;101817.91;5046546;28;20032;-71
2023/05/21 04:47:36;;;;;;;167.45;62.70;;;;;;;17.27;45.02;101812.53;5071906;28;20032;-70
2023/05/21 04:50:03;;;;;;;171.07;62.78;;;;;;;17.31;45.32;101811.53;5036342;28;20235;-70
2023/05/21 04:52:28;;;;;;;166.10;62.10;;;;;;;17.37;44.48;101813.19;5035039;28;20048;-70
2023/05/21 04:54:53;;;;;;;173.63;63.22;;;;;;;17.43;45.19;101822.72;5056008;28;20482;-70
2023/05/21 04:57:19;;;;;;;161.77;62.25;;;;;;;17.48;44.70;101813.75;5051770;28;20501;-70
2023/05/21 04:59:45;;;;;;;171.02;63.60;;;;;;;17.54;44.34;101810.06;5052108;28;20017;-70
2023/05/21 05:02:11;;;;;;;167.35;62.90;;;;;;;17.57;44.67;101805.56;5051174;28;20025;-70
2023/05/21 05:04:36;;;;;;;166.60;62.28;;;;;;;17.60;44.56;101807.25;5058261;28;20110;-70
2023/05/21 05:07:01;;;;;;;166.50;61.67;;;;;;;17.62;44.67;101808.06;5055602;28;20044;-70
2023/05/21 05:09:28;;;;;;;168.02;63.17;;;;;;;17.62;44.74;101802.78;5035497;28;20490;-70
2023/05/21 05:11:54;;;;;;;169.05;62.58;;;;;;;17.63;44.48;101804.53;5051222;28;20039;-70
2023/05/21 05:14:19;;;;;;;173.93;64.18;;;;;;;17.66;44.47;101803.59;5054439;28;20329;-70
2023/05/21 05:16:46;;;;;;;170.02;63.17;;;;;;;17.68;44.73;101802.63;5051172;28;20474;-70
2023/05/21 05:19:12;;;;;;;169.93;62.55;;;;;;;17.70;43.97;101806.09;5052938;28;20139;-70
2023/05/21 05:21:37;;;;;;;162.80;62.05;;;;;;;17.74;44.54;101805.09;5041282;28;20017;-70
2023/05/21 05:24:03;;;;;;;171.55;63.33;;;;;;;17.78;44.38;101799.69;5053827;28;20074;-70
2023/05/21 05:26:28;;;;;;;169.57;63.25;;;;;;;17.80;44.35;101800.53;5054725;28;20029;-71
2023/05/21 05:28:54;;;;;;;166.30;62.85;;;;;;;17.82;44.45;101798.69;5051750;28;20028;-71
2023/05/21 05:31:19;;;;;;;164.98;62.67;;;;;;;17.84;44.91;101799.53;5034169;28;20017;-71
2023/05/21 05:33:45;;;;;;;166.80;62.75;;;;;;;17.85;44.92;101803.91;5052792;28;20028;-71
2023/05/21 05:36:10;;;;;;;167.73;63.88;;;;;;;17.87;44.99;101796.78;5034321;28;20029;-71
2023/05/21 05:38:35;;;;;;;165.63;63.55;;;;;;;17.89;45.12;101797.63;5050270;28;20044;-71
2023/05/21 05:41:01;;;;;;;165.52;63.83;;;;;;;17.97;44.67;101800.94;5060626;28;20025;-71
2023/05/21 05:43:26;;;;;;;174.80;64.38;;;;;;;18.03;44.40;101792.81;5042183;28;20108;-70
2023/05/21 05:45:52;;;;;;;168.95;63.17;;;;;;;18.10;44.34;101803.22;5053651;28;20052;-70
2023/05/21 05:48:17;;;;;;;170.80;63.47;;;;;;;18.18;43.75;101799.41;5070736;28;20025;-71
2023/05/21 05:50:43;;;;;;;171.18;64.55;;;;;;;18.24;43.59;101801.00;5039641;28;20128;-71
2023/05/21 05:53:09;;;;;;;168.88;63.80;;;;;;;18.28;43.68;101797.34;5058068;28;20020;-71
2023/05/21 05:55:34;;;;;;;169.40;63.63;;;;;;;18.33;43.84;101800.72;5052527;28;20033;-71
2023/05/21 05:57:59;;;;;;;167.65;65.32;;;;;;;18.36;43.32;101805.91;5051391;28;20159;-71
2023/05/21 06:00:25;;;;;;;181.77;66.03;;;;;;;18.40;43.06;101801.41;5050661;28;20356;-71
2023/05/21 06:02:50;;;;;;;167.98;64.38;;;;;;;18.41;43.21;101793.41;5066543;28;20051;-71
2023/05/21 06:05:16;;;;;;;164.18;64.20;;;;;;;18.42;43.05;101789.88;5039623;28;20159;-71
2023/05/21 06:07:41;;;;;;;166.98;64.03;;;;;;;18.45;43.15;101788.00;5067437;28;20025;-71
2023/05/21 06:10:07;;;;;;;168.45;63.15;;;;;;;18.47;42.94;101786.19;5031551;28;20013;-71
2023/05/21 06:12:32;;;;;;;168.55;64.15;;;;;;;18.60;42.01;101787.53;5040747;28;20022;-71
2023/05/21 06:14:58;;;;;;;165.63;62.88;;;;;;;18.79;41.64;101787.81;5047871;28;20029;-71
2023/05/21 06:17:23;;;;;;;167.02;62.83;;;;;;;18.98;40.78;101785.44;5066987;28;20029;-71
2023/05/21 06:19:49;;;;;;;166.57;62.88;;;;;;;19.13;41.12;101791.09;5052330;28;20029;-71
2023/05/21 06:22:14;;;;;;;164.65;63.10;;;;;;;19.24;40.53;101783.66;5056037;28;20053;-71
2023/05/21 06:24:39;;;;;;;180.82;64.72;;;;;;;19.33;40.40;101788.59;5048947;28;20058;-71
2023/05/21 06:27:05;;;;;;;167.35;62.65;;;;;;;19.39;39.81;101782.25;5056097;28;20032;-71
2023/05/21 06:29:30;;;;;;;168.80;62.88;;;;;;;19.42;39.87;101782.97;5061420;28;20021;-71
2023/05/21 06:31:55;;;;;;;168.32;63.78;;;;;;;19.45;39.78;101786.47;5060837;28;20025;-71
2023/05/21 06:34:21;;;;;;;181.18;65.72;;;;;;;19.45;39.67;101781.16;5042586;28;20024;-71
2023/05/21 06:36:47;;;;;;;167.57;63.60;;;;;;;19.42;40.04;101790.09;5048543;28;20021;-72
2023/05/21 06:39:12;;;;;;;169.32;63.20;;;;;;;19.36;40.10;101788.53;5048264;28;20033;-71
2023/05/21 06:41:37;;;;;;;176.63;65.57;;;;;;;19.30;39.97;101786.06;5051532;28;20056;-71
2023/05/21 06:44:03;;;;;;;189.20;66.38;;;;;;;19.24;40.33;101783.66;5037815;28;20111;-71
2023/05/21 06:46:29;;;;;;;170.98;64.68;;;;;;;19.16;40.95;101791.00;5042167;28;20030;-71
2023/05/21 06:48:54;;;;;;;168.70;65.45;;;;;;;19.09;41.01;101783.28;5053465;28;20025;-71
2023/05/21 06:51:20;;;;;;;168.45;64.63;;;;;;;19.05;40.61;101784.28;5049650;28;20032;-71
2023/05/21 06:53:45;;;;;;;180.55;65.80;;;;;;;19.02;40.78;101781.75;5049959;28;20025;-71
2023/05/21 06:56:11;;;;;;;168.43;63.63;;;;;;;18.99;40.82;101773.94;5047516;28;20032;-71
2023/05/21 06:58:37;;;;;;;165.65;63.35;;;;;;;18.98;40.62;101780.13;5051883;28;20115;-71
2023/05/21 07:01:02;;;;;;;169.25;63.58;;;;;;;18.98;41.37;101780.13;5050080;28;20543;-71
2023/05/21 07:03:27;;;;;;;169.90;63.42;;;;;;;18.99;41.37;101779.22;5056234;28;20058;-71
2023/05/21 07:05:53;;;;;;;164.10;63.75;;;;;;;18.98;40.89;101777.50;5043994;28;20029;-71
2023/05/21 07:08:18;;;;;;;168.52;64.63;;;;;;;18.99;41.13;101778.34;5029080;28;20051;-71
2023/05/21 07:10:44;;;;;;;168.25;64.15;;;;;;;18.99;40.91;101773.94;5070810;28;20028;-71
2023/05/21 07:13:10;;;;;;;172.95;63.75;;;;;;;19.00;41.65;101766.84;5066873;28;20048;-71
2023/05/21 07:15:35;;;;;;;165.27;64.38;;;;;;;19.01;41.49;101777.38;5047780;28;20139;-71
2023/05/21 07:18:01;;;;;;;168.88;64.57;;;;;;;19.02;41.57;101784.41;5051848;28;20036;-71
2023/05/21 07:20:26;;;;;;;168.20;63.60;;;;;;;19.03;41.24;101767.63;5056630;28;20433;-71
2023/05/21 07:22:51;;;;;;;177.18;66.43;;;;;;;19.06;41.30;101767.50;5048887;28;20448;-71
2023/05/21 07:25:17;;;;;;;169.90;63.63;;;;;;;19.09;41.07;101770.03;5076522;22;20127;-70
2023/05/21 07:27:42;;;;;;;166.60;62.92;;;;;;;19.13;40.80;101777.84;5045145;28;20056;-71
2023/05/21 07:30:09;;;;;;;166.30;69.18;;;;;;;19.14;40.74;101772.53;5049902;28;20025;-70
2023/05/21 07:32:34;;;;;;;184.15;75.88;;;;;;;19.16;41.01;101769.81;5031020;28;20076;-70
2023/05/21 07:35:02;;;;;;;169.45;65.32;;;;;;;19.17;40.81;101771.53;5042659;28;20037;-71
2023/05/21 07:37:27;;;;;;;162.93;64.38;;;;;;;19.20;41.23;101766.16;5031112;28;20290;-71
2023/05/21 07:39:59;;;;;;;160.18;64.50;;;;;;;19.22;41.03;101759.00;5031050;28;20025;-70
2023/05/21 07:42:25;;;;;;;164.23;62.83;;;;;;;19.27;40.69;101753.56;5030011;28;20029;-70
2023/05/21 07:44:50;;;;;;;184.10;67.43;;;;;;;19.37;40.68;101754.94;5012827;28;20478;-71
2023/05/21 07:47:15;;;;;;;172.13;69.93;;;;;;;19.50;40.73;101758.03;5031661;28;20407;-71
2023/05/21 07:49:41;;;;;;;168.65;65.65;;;;;;;19.63;39.64;101756.63;5031134;28;20013;-70
2023/05/21 07:52:06;;;;;;;158.38;62.95;;;;;;;19.75;39.76;101755.28;5030277;28;20033;-71
2023/05/21 07:54:31;;;;;;;168.80;67.82;;;;;;;19.84;39.56;101756.78;5033895;28;20041;-70
2023/05/21 07:56:57;;;;;;;170.90;68.22;;;;;;;19.87;39.50;101748.72;5034599;28;20021;-70
2023/05/21 07:59:23;;;;;;;174.13;72.45;;;;;;;19.88;39.22;101750.44;5017221;28;20478;-70
2023/05/21 08:01:49;;;;;;;172.50;69.43;;;;;;;19.90;39.61;101751.22;5016899;28;20033;-71
2023/05/21 08:04:14;;;;;;;186.40;69.07;;;;;;;19.89;39.33;101749.50;5034255;28;20033;-71
2023/05/21 08:06:39;;;;;;;172.82;77.30;;;;;;;19.89;39.70;101746.84;5018126;28;20062;-69
2023/05/21 08:09:05;;;;;;;174.35;64.60;;;;;;;19.88;39.79;101751.28;5033036;28;20033;-72
2023/05/21 08:11:31;;;;;;;170.75;69.65;;;;;;;19.88;39.75;101750.44;5033877;28;20025;-69
2023/05/21 08:13:56;;;;;;;173.05;64.45;;;;;;;19.87;39.34;101744.25;5042511;28;20505;-70
2023/05/21 08:16:22;;;;;;;163.48;64.55;;;;;;;19.87;39.20;101744.25;5030862;28;20034;-71
2023/05/21 08:18:48;;;;;;;169.57;72.03;;;;;;;19.85;39.52;101737.28;5037856;28;20025;-70
2023/05/21 08:21:13;;;;;;;163.93;66.80;;;;;;;19.83;39.36;101741.78;5016174;28;20027;-71
2023/05/21 08:23:39;;;;;;;172.30;71.47;;;;;;;19.83;40.12;101739.16;5033269;28;20112;-70
2023/05/21 08:26:05;;;;;;;188.60;81.78;;;;;;;19.80;39.46;101737.47;5034068;28;20027;-70
2023/05/21 08:28:31;;;;;;;181.02;76.97;;;;;;;19.80;39.82;101739.22;5033377;28;20175;-71
2023/05/21 08:30:56;;;;;;;166.10;73.97;;;;;;;19.79;40.04;101734.84;5035023;28;20112;-71
2023/05/21 08:33:21;;;;;;;168.55;74.45;;;;;;;19.75;39.92;101727.00;5016808;28;20125;-70
2023/05/21 08:35:47;;;;;;;182.13;80.60;;;;;;;19.75;40.10;101742.91;5035848;28;20447;-71
2023/05/21 08:38:12;;;;;;;159.45;65.18;;;;;;;19.71;40.13;101741.28;5033071;28;20036;-70
2023/05/21 08:40:37;;;;;;;177.73;66.28;;;;;;;19.69;39.88;101735.19;5015282;28;20087;-70
2023/05/21 08:43:03;;;;;;;161.43;62.83;;;;;;;19.66;40.20;101735.31;5032785;28;20033;-70
2023/05/21 08:45:36;;;;;;;163.32;61.38;;;;;;;19.65;39.94;101736.22;5034177;28;20475;-70
2023/05/21 08:48:01;;;;;;;155.65;61.03;;;;;;;19.64;40.06;101729.19;5019938;28;20063;-70
2023/05/21 08:50:27;;;;;;;158.55;62.60;;;;;;;19.62;40.38;101725.75;5034674;28;20025;-70
2023/05/21 08:52:54;;;;;;;166.60;63.53;;;;;;;19.60;40.08;101727.59;5032186;28;20041;-70
2023/05/21 08:55:20;;;;;;;162.90;63.83;;;;;;;19.59;40.09;101731.16;5032466;28;20078;-70
2023/05/21 08:57:45;;;;;;;167.35;63.80;;;;;;;19.57;40.64;101727.72;5032793;28;20397;-71
2023/05/21 09:00:11;;;;;;;162.45;61.33;;;;;;;19.54;40.37;101722.53;5030922;28;20391;-70
2023/05/21 09:02:39;;;;;;;175.02;63.75;;;;;;;19.50;40.59;101723.56;5031772;28;20544;-70
2023/05/21 09:05:05;;;;;;;170.45;64.25;;;;;;;19.49;40.67;101724.50;5040855;28;20034;-70
2023/05/21 09:07:35;;;;;;;160.90;62.00;;;;;;;19.47;40.32;101724.56;5032371;28;20052;-70
2023/05/21 09:10:04;;;;;;;165.02;64.00;;;;;;;19.45;40.47;101722.88;5034187;28;20035;-70
2023/05/21 09:12:30;;;;;;;165.77;63.08;;;;;;;19.42;40.48;101730.00;5015336;28;20029;-72
2023/05/21 09:14:57;;;;;;;167.13;63.85;;;;;;;19.41;40.56;101717.69;5033150;28;20430;-70
2023/05/21 09:17:23;;;;;;;168.30;63.67;;;;;;;19.41;40.88;101723.00;5031530;28;20025;-70
2023/05/21 09:20:10;;;;;;;167.10;63.67;;;;;;;19.40;40.97;101721.25;5037809;28;20025;-70
2023/05/21 09:22:39;;;;;;;160.23;61.88;;;;;;;19.39;40.95;101724.81;5031838;28;20025;-71
2023/05/21 09:25:06;;;;;;;158.27;61.67;;;;;;;19.38;40.87;101724.88;5032125;28;20029;-71
2023/05/21 09:27:32;;;;;;;180.43;65.60;;;;;;;19.37;41.08;101721.38;5033094;28;20017;-71
2023/05/21 09:29:57;;;;;;;168.43;64.20;;;;;;;19.38;40.88;101727.53;5032044;28;20372;-71
2023/05/21 09:32:23;;;;;;;157.43;60.45;;;;;;;19.36;40.62;101721.41;5033760;28;20033;-70
2023/05/21 09:34:48;;;;;;;170.32;63.38;;;;;;;19.38;41.10;101730.19;5033428;28;20024;-70
2023/05/21 09:37:15;;;;;;;161.18;62.40;;;;;;;19.38;40.84;101736.34;5033150;28;20025;-70
2023/05/21 09:39:41;;;;;;;162.60;62.67;;;;;;;19.40;41.32;101736.28;5035372;28;20033;-71
2023/05/21 09:42:06;;;;;;;169.95;63.67;;;;;;;19.40;40.73;101731.84;5028909;28;20029;-71
2023/05/21 09:44:31;;;;;;;165.07;62.38;;;;;;;19.44;40.65;101737.88;5031366;28;20691;-70
2023/05/21 09:46:58;;;;;;;171.10;64.28;;;;;;;19.45;40.96;101736.13;5028677;28;20465;-70
2023/05/21 09:49:25;;;;;;;165.05;62.78;;;;;;;19.47;40.96;101739.56;5033003;28;20026;-70
2023/05/21 09:51:54;;;;;;;165.52;64.15;;;;;;;19.49;40.52;101735.09;5031782;28;20238;-71
2023/05/21 09:54:20;;;;;;;170.52;63.78;;;;;;;19.51;40.89;101728.81;5031563;28;20030;-70
2023/05/21 09:56:45;;;;;;;160.52;63.10;;;;;;;19.53;40.81;101720.81;5032558;28;20032;-71
2023/05/21 09:59:10;;;;;;;167.15;62.90;;;;;;;19.55;40.33;101719.81;5031341;28;20031;-70
2023/05/21 10:01:37;;;;;;;166.07;63.95;;;;;;;19.59;41.00;101720.56;5033215;28;20021;-70
2023/05/21 10:04:06;;;;;;;161.43;62.25;;;;;;;19.62;40.84;101725.75;5032454;28;20026;-71
2023/05/21 10:06:33;;;;;;;175.43;63.58;;;;;;;19.62;40.95;101728.41;5029225;28;20061;-69
2023/05/21 10:09:02;;;;;;;165.68;62.58;;;;;;;19.65;40.90;101722.13;5007263;28;20029;-70
2023/05/21 10:11:30;;;;;;;163.52;63.15;;;;;;;19.66;40.85;101726.47;5030895;28;20029;-70
2023/05/21 10:14:17;;;;;;;164.90;65.00;;;;;;;19.64;40.44;101718.59;5015890;28;20417;-69
2023/05/21 10:16:43;;;;;;;170.63;63.35;;;;;;;19.62;40.75;101720.47;5014548;28;20056;-69
2023/05/21 10:19:09;;;;;;;165.60;63.05;;;;;;;19.63;40.46;101721.31;5032438;28;20471;-70
2023/05/21 10:21:35;;;;;;;165.57;63.13;;;;;;;19.62;40.67;101709.84;5031075;28;20028;-70
2023/05/21 10:24:01;;;;;;;166.45;63.28;;;;;;;19.60;40.48;101711.69;5028439;28;20029;-71
2023/05/21 10:26:27;;;;;;;167.88;64.20;;;;;;;19.60;40.88;101709.03;5012881;28;20406;-70
2023/05/21 10:28:54;;;;;;;175.25;64.38;;;;;;;19.61;40.96;101704.63;5030045;28;20033;-71
2023/05/21 10:31:20;;;;;;;164.23;63.00;;;;;;;19.61;40.50;101696.66;5030738;28;20343;-70
2023/05/21 10:33:45;;;;;;;167.68;63.63;;;;;;;19.60;40.48;101701.09;5030739;28;20104;-71
2023/05/21 10:36:10;;;;;;;163.40;62.25;;;;;;;19.60;40.44;101695.78;5029672;28;20033;-71
2023/05/21 10:38:37;;;;;;;164.30;63.70;;;;;;;19.59;40.67;101688.75;5029726;28;20021;-72
2023/05/21 10:41:05;;;;;;;171.95;63.88;;;;;;;19.57;41.09;101685.31;5013669;28;20029;-71
2023/05/21 10:43:43;;;;;;;161.88;63.03;;;;;;;19.56;40.90;101683.56;5030958;28;20033;-71
2023/05/21 10:46:23;;;;;;;155.30;62.72;;;;;;;19.54;40.64;101685.44;5030805;28;20773;-71
2023/05/21 10:49:07;;;;;;;166.95;67.13;;;;;;;19.52;40.70;101680.16;5029956;28;20032;-71
2023/05/21 10:51:38;;;;;;;166.68;65.18;;;;;;;19.52;41.33;101676.66;5032146;28;20474;-70
2023/05/21 10:54:22;;;;;;;169.70;64.72;;;;;;;19.51;40.89;101680.22;5029891;28;20030;-71
2023/05/21 10:56:56;;;;;;;166.85;70.13;;;;;;;19.49;41.29;101680.28;5032633;28;20466;-70